ROMMA est une association bénévole à but non lucratif. Votre soutien est indispensable : ADHERER à ROMMA ou FAIRE un DON

Granges-lès-Beaumont - (26, Drôme)

Drôme des Collines (155 m)   Longitude: 04°58'E   Latitude: 45°03'N Station partenaire n°123
 

Détail journalier du     <<     >>

Température Precipitation Humidité Pression Vent Dir Rafale Dir. rafale Ensol.
Heure (°C) (mm) (%) (hPa) (km/h) (km/h) (min)
01:00 9.2069102311N15NNO0
02:00 8.507010239NNO15NNO0
03:00 7.807310229NNO16N0
04:00 7.7072102211NNO18N0
05:00 6.8074102211NNO16NNO0
06:00 6.3076102211NNO18NNO0
07:00 6.3077102211NNO16NO0
08:00 8.2070102212NNO27NNO0
09:00 9.9066102217NNO31N0
10:00 12.4059102115N27NNO30
11:00 14.4055102116N32NNE60
12:00 15.9049102020NNO37NNE60
13:00 17.8047101922NNE42NNE60
14:00 18.9046101920N40NNO60
15:00 19.9043101821NNE42NNO60
16:00 20.6039101722N42N60
17:00 20.6039101623NNO42NNE60
18:00 20.3039101621NNO42NNE50
19:00 18.7039101621N47NNE60
20:00 16.6042101721NNO40NNO40
21:00 14.7046101714NNO34NNO0
22:00 12.805310177N16NNO0
23:00 11.305810178N16N0
minuit 10.805910177N16NNE0

Graphique du 14-05-2019

 

Serveur OMMA